sensor_id;sensor_type;location;lat;lon;timestamp;noise_LAeq;noise_LA_min;noise_LA_max;noise_LA01;noise_LA95
66335;Laerm;53138;51.496;6.410;2023-07-29T00:00:08;33.41;31.80;35.25;;
66335;Laerm;53138;51.496;6.410;2023-07-29T00:00:19;33.85;31.61;44.07;;
66335;Laerm;53138;51.496;6.410;2023-07-29T00:00:29;33.36;31.52;35.46;;
66335;Laerm;53138;51.496;6.410;2023-07-29T00:00:40;34.83;31.49;46.94;;
66335;Laerm;53138;51.496;6.410;2023-07-29T00:00:51;35.83;31.89;45.69;;
66335;Laerm;53138;51.496;6.410;2023-07-29T00:01:01;34.23;31.52;43.92;;
66335;Laerm;53138;51.496;6.410;2023-07-29T00:01:12;33.71;31.78;41.06;;
66335;Laerm;53138;51.496;6.410;2023-07-29T00:01:22;33.44;31.81;35.30;;
66335;Laerm;53138;51.496;6.410;2023-07-29T00:01:35;33.49;31.89;35.71;;
66335;Laerm;53138;51.496;6.410;2023-07-29T00:01:45;33.42;31.32;35.83;;
66335;Laerm;53138;51.496;6.410;2023-07-29T00:01:56;33.36;31.69;35.77;;
66335;Laerm;53138;51.496;6.410;2023-07-29T00:02:06;33.45;31.69;35.48;;
66335;Laerm;53138;51.496;6.410;2023-07-29T00:02:16;33.34;31.48;35.45;;
66335;Laerm;53138;51.496;6.410;2023-07-29T00:02:26;33.48;31.70;38.78;;
66335;Laerm;53138;51.496;6.410;2023-07-29T00:02:39;33.55;32.05;35.91;;
66335;Laerm;53138;51.496;6.410;2023-07-29T00:02:49;34.52;31.56;50.68;;
66335;Laerm;53138;51.496;6.410;2023-07-29T00:03:00;33.40;31.72;35.15;;
66335;Laerm;53138;51.496;6.410;2023-07-29T00:03:10;33.45;31.34;35.13;;
66335;Laerm;53138;51.496;6.410;2023-07-29T00:03:20;33.39;31.67;35.20;;
66335;Laerm;53138;51.496;6.410;2023-07-29T00:03:30;33.40;31.64;35.41;;
66335;Laerm;53138;51.496;6.410;2023-07-29T00:03:42;33.39;31.82;35.28;;
66335;Laerm;53138;51.496;6.410;2023-07-29T00:03:52;33.41;32.01;35.74;;
66335;Laerm;53138;51.496;6.410;2023-07-29T00:04:02;33.60;31.88;35.54;;
66335;Laerm;53138;51.496;6.410;2023-07-29T00:04:12;33.45;31.72;36.48;;
66335;Laerm;53138;51.496;6.410;2023-07-29T00:04:23;33.70;32.04;36.39;;
66335;Laerm;53138;51.496;6.410;2023-07-29T00:04:33;37.70;32.72;44.90;;
66335;Laerm;53138;51.496;6.410;2023-07-29T00:04:43;39.61;34.23;49.21;;
66335;Laerm;53138;51.496;6.410;2023-07-29T00:04:53;34.57;32.84;36.87;;
66335;Laerm;53138;51.496;6.410;2023-07-29T00:05:04;33.92;32.02;35.75;;
66335;Laerm;53138;51.496;6.410;2023-07-29T00:05:14;34.75;32.16;37.68;;
66335;Laerm;53138;51.496;6.410;2023-07-29T00:05:24;39.76;33.74;45.87;;
66335;Laerm;53138;51.496;6.410;2023-07-29T00:05:36;35.68;33.03;39.10;;
66335;Laerm;53138;51.496;6.410;2023-07-29T00:05:47;33.77;32.11;35.99;;
66335;Laerm;53138;51.496;6.410;2023-07-29T00:05:57;33.52;31.95;35.26;;
66335;Laerm;53138;51.496;6.410;2023-07-29T00:06:09;33.40;31.66;35.59;;
66335;Laerm;53138;51.496;6.410;2023-07-29T00:06:19;33.32;31.85;35.48;;
66335;Laerm;53138;51.496;6.410;2023-07-29T00:06:29;33.40;31.62;35.31;;
66335;Laerm;53138;51.496;6.410;2023-07-29T00:06:39;33.38;31.52;35.49;;
66335;Laerm;53138;51.496;6.410;2023-07-29T00:06:50;33.24;31.44;35.45;;
66335;Laerm;53138;51.496;6.410;2023-07-29T00:07:00;33.19;31.61;34.99;;
66335;Laerm;53138;51.496;6.410;2023-07-29T00:07:10;33.26;31.84;36.66;;
66335;Laerm;53138;51.496;6.410;2023-07-29T00:07:20;33.16;30.93;34.80;;
66335;Laerm;53138;51.496;6.410;2023-07-29T00:07:31;33.43;31.54;43.78;;
66335;Laerm;53138;51.496;6.410;2023-07-29T00:07:41;33.21;31.24;35.41;;
66335;Laerm;53138;51.496;6.410;2023-07-29T00:07:51;33.51;31.77;36.00;;
66335;Laerm;53138;51.496;6.410;2023-07-29T00:08:01;33.37;31.59;35.51;;
66335;Laerm;53138;51.496;6.410;2023-07-29T00:08:12;33.22;31.52;35.33;;
66335;Laerm;53138;51.496;6.410;2023-07-29T00:08:22;33.27;31.69;35.74;;
66335;Laerm;53138;51.496;6.410;2023-07-29T00:08:33;33.05;31.53;34.63;;
66335;Laerm;53138;51.496;6.410;2023-07-29T00:08:43;33.19;31.28;35.23;;
66335;Laerm;53138;51.496;6.410;2023-07-29T00:08:53;33.38;31.49;35.61;;
66335;Laerm;53138;51.496;6.410;2023-07-29T00:09:03;33.21;31.41;35.30;;
66335;Laerm;53138;51.496;6.410;2023-07-29T00:09:14;33.44;31.87;35.08;;
66335;Laerm;53138;51.496;6.410;2023-07-29T00:09:24;33.32;31.27;35.09;;
66335;Laerm;53138;51.496;6.410;2023-07-29T00:09:34;33.23;31.53;36.27;;
66335;Laerm;53138;51.496;6.410;2023-07-29T00:09:45;33.24;31.72;34.92;;
66335;Laerm;53138;51.496;6.410;2023-07-29T00:09:55;33.20;31.53;38.60;;
66335;Laerm;53138;51.496;6.410;2023-07-29T00:10:05;33.46;31.39;43.51;;
66335;Laerm;53138;51.496;6.410;2023-07-29T00:10:16;33.19;31.61;36.10;;
66335;Laerm;53138;51.496;6.410;2023-07-29T00:10:26;33.38;31.63;35.60;;
66335;Laerm;53138;51.496;6.410;2023-07-29T00:10:37;33.73;31.29;36.02;;
66335;Laerm;53138;51.496;6.410;2023-07-29T00:10:47;33.20;31.59;34.80;;
66335;Laerm;53138;51.496;6.410;2023-07-29T00:10:57;34.10;32.18;36.49;;
66335;Laerm;53138;51.496;6.410;2023-07-29T00:11:08;33.14;31.31;35.16;;
66335;Laerm;53138;51.496;6.410;2023-07-29T00:11:18;33.08;30.92;37.31;;
66335;Laerm;53138;51.496;6.410;2023-07-29T00:11:28;33.32;31.20;42.87;;
66335;Laerm;53138;51.496;6.410;2023-07-29T00:11:38;32.98;31.34;34.77;;
66335;Laerm;53138;51.496;6.410;2023-07-29T00:11:49;32.97;31.16;34.69;;
66335;Laerm;53138;51.496;6.410;2023-07-29T00:11:59;33.00;30.70;36.65;;
66335;Laerm;53138;51.496;6.410;2023-07-29T00:12:09;32.95;31.17;34.78;;
66335;Laerm;53138;51.496;6.410;2023-07-29T00:12:19;32.99;31.35;34.59;;
66335;Laerm;53138;51.496;6.410;2023-07-29T00:12:29;34.65;31.80;38.20;;
66335;Laerm;53138;51.496;6.410;2023-07-29T00:12:40;39.93;34.56;46.37;;
66335;Laerm;53138;51.496;6.410;2023-07-29T00:12:50;35.29;32.09;39.91;;
66335;Laerm;53138;51.496;6.410;2023-07-29T00:13:00;33.17;31.19;35.01;;
66335;Laerm;53138;51.496;6.410;2023-07-29T00:13:10;33.11;30.93;34.88;;
66335;Laerm;53138;51.496;6.410;2023-07-29T00:13:20;32.90;31.00;34.92;;
66335;Laerm;53138;51.496;6.410;2023-07-29T00:13:31;33.18;31.24;39.40;;
66335;Laerm;53138;51.496;6.410;2023-07-29T00:13:41;33.52;31.98;35.77;;
66335;Laerm;53138;51.496;6.410;2023-07-29T00:13:51;33.13;31.46;35.42;;
66335;Laerm;53138;51.496;6.410;2023-07-29T00:14:02;33.19;31.46;37.53;;
66335;Laerm;53138;51.496;6.410;2023-07-29T00:14:13;33.14;31.15;34.71;;
66335;Laerm;53138;51.496;6.410;2023-07-29T00:14:23;33.08;31.16;35.03;;
66335;Laerm;53138;51.496;6.410;2023-07-29T00:14:33;32.96;31.18;35.26;;
66335;Laerm;53138;51.496;6.410;2023-07-29T00:14:43;33.08;31.26;39.47;;
66335;Laerm;53138;51.496;6.410;2023-07-29T00:14:54;33.13;31.05;39.26;;
66335;Laerm;53138;51.496;6.410;2023-07-29T00:15:04;32.83;31.15;34.40;;
66335;Laerm;53138;51.496;6.410;2023-07-29T00:15:15;32.90;31.09;35.62;;
66335;Laerm;53138;51.496;6.410;2023-07-29T00:15:25;33.07;31.41;34.87;;
66335;Laerm;53138;51.496;6.410;2023-07-29T00:15:35;33.37;31.38;35.12;;
66335;Laerm;53138;51.496;6.410;2023-07-29T00:15:46;33.17;30.94;34.95;;
66335;Laerm;53138;51.496;6.410;2023-07-29T00:15:56;33.93;31.59;35.90;;
66335;Laerm;53138;51.496;6.410;2023-07-29T00:16:06;37.15;33.40;41.93;;
66335;Laerm;53138;51.496;6.410;2023-07-29T00:16:16;45.32;36.60;51.02;;
66335;Laerm;53138;51.496;6.410;2023-07-29T00:16:27;39.03;34.24;46.19;;
66335;Laerm;53138;51.496;6.410;2023-07-29T00:16:37;39.60;35.54;43.68;;
66335;Laerm;53138;51.496;6.410;2023-07-29T00:16:47;35.05;32.22;38.29;;
66335;Laerm;53138;51.496;6.410;2023-07-29T00:16:58;33.67;31.70;35.00;;
66335;Laerm;53138;51.496;6.410;2023-07-29T00:17:08;34.43;31.94;38.84;;
66335;Laerm;53138;51.496;6.410;2023-07-29T00:17:18;41.96;35.88;47.61;;
66335;Laerm;53138;51.496;6.410;2023-07-29T00:17:30;37.18;31.97;44.56;;
66335;Laerm;53138;51.496;6.410;2023-07-29T00:17:40;33.26;31.38;35.35;;
66335;Laerm;53138;51.496;6.410;2023-07-29T00:17:50;33.21;31.31;35.15;;
66335;Laerm;53138;51.496;6.410;2023-07-29T00:18:00;33.38;31.30;35.98;;
66335;Laerm;53138;51.496;6.410;2023-07-29T00:18:11;33.57;31.93;38.25;;
66335;Laerm;53138;51.496;6.410;2023-07-29T00:18:21;33.11;31.42;35.36;;
66335;Laerm;53138;51.496;6.410;2023-07-29T00:18:32;33.27;31.80;34.78;;
66335;Laerm;53138;51.496;6.410;2023-07-29T00:18:43;33.64;31.83;36.20;;
66335;Laerm;53138;51.496;6.410;2023-07-29T00:18:53;35.98;32.02;43.09;;
66335;Laerm;53138;51.496;6.410;2023-07-29T00:19:03;43.11;36.56;51.59;;
66335;Laerm;53138;51.496;6.410;2023-07-29T00:19:15;39.94;34.09;41.86;;
66335;Laerm;53138;51.496;6.410;2023-07-29T00:19:26;40.38;38.72;41.63;;
66335;Laerm;53138;51.496;6.410;2023-07-29T00:19:36;39.90;39.00;40.91;;
66335;Laerm;53138;51.496;6.410;2023-07-29T00:19:46;39.93;38.57;40.96;;
66335;Laerm;53138;51.496;6.410;2023-07-29T00:19:57;36.32;31.20;40.44;;
66335;Laerm;53138;51.496;6.410;2023-07-29T00:20:07;32.87;31.03;34.85;;
66335;Laerm;53138;51.496;6.410;2023-07-29T00:20:17;32.99;31.26;35.29;;
66335;Laerm;53138;51.496;6.410;2023-07-29T00:20:28;33.08;31.31;35.79;;
66335;Laerm;53138;51.496;6.410;2023-07-29T00:20:38;33.69;31.63;36.04;;
66335;Laerm;53138;51.496;6.410;2023-07-29T00:20:49;34.51;32.54;36.50;;
66335;Laerm;53138;51.496;6.410;2023-07-29T00:21:00;33.89;32.11;35.76;;
66335;Laerm;53138;51.496;6.410;2023-07-29T00:21:10;33.70;31.97;35.82;;
66335;Laerm;53138;51.496;6.410;2023-07-29T00:21:20;33.52;31.90;35.11;;
66335;Laerm;53138;51.496;6.410;2023-07-29T00:21:30;33.18;31.39;35.23;;
66335;Laerm;53138;51.496;6.410;2023-07-29T00:21:41;32.95;31.20;34.55;;
66335;Laerm;53138;51.496;6.410;2023-07-29T00:21:51;33.86;31.74;35.48;;
66335;Laerm;53138;51.496;6.410;2023-07-29T00:22:01;34.11;31.91;36.19;;
66335;Laerm;53138;51.496;6.410;2023-07-29T00:22:11;33.30;31.80;34.94;;
66335;Laerm;53138;51.496;6.410;2023-07-29T00:22:21;33.54;32.00;36.51;;
66335;Laerm;53138;51.496;6.410;2023-07-29T00:22:32;40.11;33.82;45.50;;
66335;Laerm;53138;51.496;6.410;2023-07-29T00:22:42;35.44;32.07;41.21;;
66335;Laerm;53138;51.496;6.410;2023-07-29T00:22:53;32.78;30.75;35.23;;
66335;Laerm;53138;51.496;6.410;2023-07-29T00:23:04;32.96;31.19;34.79;;
66335;Laerm;53138;51.496;6.410;2023-07-29T00:23:14;33.04;31.16;35.78;;
66335;Laerm;53138;51.496;6.410;2023-07-29T00:23:25;33.33;31.48;36.02;;
66335;Laerm;53138;51.496;6.410;2023-07-29T00:23:35;33.85;31.87;37.34;;
66335;Laerm;53138;51.496;6.410;2023-07-29T00:23:45;34.55;31.66;40.27;;
66335;Laerm;53138;51.496;6.410;2023-07-29T00:23:56;34.10;31.43;38.22;;
66335;Laerm;53138;51.496;6.410;2023-07-29T00:24:07;33.99;31.36;38.77;;
66335;Laerm;53138;51.496;6.410;2023-07-29T00:24:17;33.88;31.71;38.62;;
66335;Laerm;53138;51.496;6.410;2023-07-29T00:24:28;33.93;31.06;39.02;;
66335;Laerm;53138;51.496;6.410;2023-07-29T00:24:39;33.19;31.50;37.35;;
66335;Laerm;53138;51.496;6.410;2023-07-29T00:24:52;33.29;31.16;35.21;;
66335;Laerm;53138;51.496;6.410;2023-07-29T00:25:05;33.38;31.45;38.27;;
66335;Laerm;53138;51.496;6.410;2023-07-29T00:25:15;33.11;31.38;35.53;;
66335;Laerm;53138;51.496;6.410;2023-07-29T00:25:26;33.62;31.87;35.70;;
66335;Laerm;53138;51.496;6.410;2023-07-29T00:25:36;35.03;33.14;36.53;;
66335;Laerm;53138;51.496;6.410;2023-07-29T00:25:46;33.29;31.65;35.05;;
66335;Laerm;53138;51.496;6.410;2023-07-29T00:25:56;33.21;31.30;35.54;;
66335;Laerm;53138;51.496;6.410;2023-07-29T00:26:07;33.10;31.39;36.60;;
66335;Laerm;53138;51.496;6.410;2023-07-29T00:26:17;33.97;31.77;35.90;;
66335;Laerm;53138;51.496;6.410;2023-07-29T00:26:27;34.25;32.58;35.97;;
66335;Laerm;53138;51.496;6.410;2023-07-29T00:26:39;37.91;32.98;44.37;;
66335;Laerm;53138;51.496;6.410;2023-07-29T00:26:49;37.34;33.87;42.03;;
66335;Laerm;53138;51.496;6.410;2023-07-29T00:26:59;33.28;31.70;35.71;;
66335;Laerm;53138;51.496;6.410;2023-07-29T00:27:10;33.05;31.11;35.11;;
66335;Laerm;53138;51.496;6.410;2023-07-29T00:27:20;32.95;30.82;34.87;;
66335;Laerm;53138;51.496;6.410;2023-07-29T00:27:30;33.18;31.36;35.91;;
66335;Laerm;53138;51.496;6.410;2023-07-29T00:27:41;33.62;31.51;42.52;;
66335;Laerm;53138;51.496;6.410;2023-07-29T00:27:51;32.87;31.11;34.54;;
66335;Laerm;53138;51.496;6.410;2023-07-29T00:28:01;33.27;31.16;38.81;;
66335;Laerm;53138;51.496;6.410;2023-07-29T00:28:11;32.95;31.19;35.11;;
66335;Laerm;53138;51.496;6.410;2023-07-29T00:28:22;33.17;31.22;35.40;;
66335;Laerm;53138;51.496;6.410;2023-07-29T00:28:32;33.17;31.09;35.89;;
66335;Laerm;53138;51.496;6.410;2023-07-29T00:28:42;33.47;31.95;39.23;;
66335;Laerm;53138;51.496;6.410;2023-07-29T00:28:52;33.07;31.18;34.73;;
66335;Laerm;53138;51.496;6.410;2023-07-29T00:29:03;32.92;31.09;34.71;;
66335;Laerm;53138;51.496;6.410;2023-07-29T00:29:13;33.20;30.82;35.77;;
66335;Laerm;53138;51.496;6.410;2023-07-29T00:29:23;33.55;31.92;35.60;;
66335;Laerm;53138;51.496;6.410;2023-07-29T00:29:33;36.16;32.60;39.38;;
66335;Laerm;53138;51.496;6.410;2023-07-29T00:29:44;41.07;35.72;46.54;;
66335;Laerm;53138;51.496;6.410;2023-07-29T00:29:54;34.56;32.43;37.70;;
66335;Laerm;53138;51.496;6.410;2023-07-29T00:30:04;33.13;31.76;34.64;;
66335;Laerm;53138;51.496;6.410;2023-07-29T00:30:15;32.92;31.38;34.82;;
66335;Laerm;53138;51.496;6.410;2023-07-29T00:30:25;33.45;31.56;36.12;;
66335;Laerm;53138;51.496;6.410;2023-07-29T00:30:35;34.68;32.67;36.54;;
66335;Laerm;53138;51.496;6.410;2023-07-29T00:30:45;33.40;31.56;35.99;;
66335;Laerm;53138;51.496;6.410;2023-07-29T00:30:55;33.12;31.68;36.02;;
66335;Laerm;53138;51.496;6.410;2023-07-29T00:31:06;34.43;32.06;36.84;;
66335;Laerm;53138;51.496;6.410;2023-07-29T00:31:16;35.09;32.78;36.99;;
66335;Laerm;53138;51.496;6.410;2023-07-29T00:31:26;33.88;32.11;36.17;;
66335;Laerm;53138;51.496;6.410;2023-07-29T00:31:36;33.45;31.70;35.06;;
66335;Laerm;53138;51.496;6.410;2023-07-29T00:31:47;33.26;31.17;35.46;;
66335;Laerm;53138;51.496;6.410;2023-07-29T00:31:57;33.45;31.36;35.24;;
66335;Laerm;53138;51.496;6.410;2023-07-29T00:32:07;33.49;31.78;35.65;;
66335;Laerm;53138;51.496;6.410;2023-07-29T00:32:17;33.27;31.55;37.21;;
66335;Laerm;53138;51.496;6.410;2023-07-29T00:32:28;33.43;31.49;35.80;;
66335;Laerm;53138;51.496;6.410;2023-07-29T00:32:39;34.01;32.26;39.38;;
66335;Laerm;53138;51.496;6.410;2023-07-29T00:32:49;33.44;31.53;36.11;;
66335;Laerm;53138;51.496;6.410;2023-07-29T00:32:59;33.20;31.78;34.85;;
66335;Laerm;53138;51.496;6.410;2023-07-29T00:33:09;32.97;31.14;34.83;;
66335;Laerm;53138;51.496;6.410;2023-07-29T00:33:20;32.96;31.20;35.17;;
66335;Laerm;53138;51.496;6.410;2023-07-29T00:33:30;32.99;30.92;34.87;;
66335;Laerm;53138;51.496;6.410;2023-07-29T00:33:41;33.19;31.40;35.91;;
66335;Laerm;53138;51.496;6.410;2023-07-29T00:33:51;33.27;31.44;35.18;;
66335;Laerm;53138;51.496;6.410;2023-07-29T00:34:02;34.61;32.07;36.67;;
66335;Laerm;53138;51.496;6.410;2023-07-29T00:34:13;34.11;31.95;36.13;;
66335;Laerm;53138;51.496;6.410;2023-07-29T00:34:27;33.61;31.51;35.82;;
66335;Laerm;53138;51.496;6.410;2023-07-29T00:34:37;32.93;31.09;34.92;;
66335;Laerm;53138;51.496;6.410;2023-07-29T00:34:47;33.03;31.32;34.95;;
66335;Laerm;53138;51.496;6.410;2023-07-29T00:34:57;32.91;31.01;35.14;;
66335;Laerm;53138;51.496;6.410;2023-07-29T00:35:10;32.98;31.59;35.32;;
66335;Laerm;53138;51.496;6.410;2023-07-29T00:35:21;32.90;31.35;34.88;;
66335;Laerm;53138;51.496;6.410;2023-07-29T00:35:31;32.86;30.81;34.55;;
66335;Laerm;53138;51.496;6.410;2023-07-29T00:35:41;32.84;30.87;35.01;;
66335;Laerm;53138;51.496;6.410;2023-07-29T00:35:51;32.94;31.20;34.91;;
66335;Laerm;53138;51.496;6.410;2023-07-29T00:36:02;32.94;31.04;35.30;;
66335;Laerm;53138;51.496;6.410;2023-07-29T00:36:13;32.89;31.44;34.73;;
66335;Laerm;53138;51.496;6.410;2023-07-29T00:36:23;32.88;31.22;35.34;;
66335;Laerm;53138;51.496;6.410;2023-07-29T00:36:33;33.14;31.82;35.32;;
66335;Laerm;53138;51.496;6.410;2023-07-29T00:36:43;33.69;31.70;36.11;;
66335;Laerm;53138;51.496;6.410;2023-07-29T00:36:54;33.19;31.57;35.06;;
66335;Laerm;53138;51.496;6.410;2023-07-29T00:37:04;33.18;31.53;35.29;;
66335;Laerm;53138;51.496;6.410;2023-07-29T00:37:15;32.83;31.00;34.83;;
66335;Laerm;53138;51.496;6.410;2023-07-29T00:37:26;33.00;30.92;34.72;;
66335;Laerm;53138;51.496;6.410;2023-07-29T00:37:36;33.15;31.51;35.15;;
66335;Laerm;53138;51.496;6.410;2023-07-29T00:37:47;32.94;31.14;34.57;;
66335;Laerm;53138;51.496;6.410;2023-07-29T00:37:58;32.92;30.92;34.85;;
66335;Laerm;53138;51.496;6.410;2023-07-29T00:38:08;33.22;31.37;40.06;;
66335;Laerm;53138;51.496;6.410;2023-07-29T00:38:18;33.07;31.29;35.47;;
66335;Laerm;53138;51.496;6.410;2023-07-29T00:38:28;33.09;31.13;34.94;;
66335;Laerm;53138;51.496;6.410;2023-07-29T00:38:38;32.97;31.54;34.88;;
66335;Laerm;53138;51.496;6.410;2023-07-29T00:38:49;33.22;31.03;35.63;;
66335;Laerm;53138;51.496;6.410;2023-07-29T00:38:59;35.67;32.87;39.17;;
66335;Laerm;53138;51.496;6.410;2023-07-29T00:39:09;38.12;32.59;42.45;;
66335;Laerm;53138;51.496;6.410;2023-07-29T00:39:19;33.85;31.61;41.32;;
66335;Laerm;53138;51.496;6.410;2023-07-29T00:39:30;33.04;30.50;41.50;;
66335;Laerm;53138;51.496;6.410;2023-07-29T00:39:40;32.80;31.07;35.00;;
66335;Laerm;53138;51.496;6.410;2023-07-29T00:39:50;32.90;31.35;34.57;;
66335;Laerm;53138;51.496;6.410;2023-07-29T00:40:00;32.88;31.01;35.01;;
66335;Laerm;53138;51.496;6.410;2023-07-29T00:40:29;32.79;30.64;34.65;;
66335;Laerm;53138;51.496;6.410;2023-07-29T00:40:44;33.25;30.99;39.96;;
66335;Laerm;53138;51.496;6.410;2023-07-29T00:40:55;33.43;30.70;37.78;;
66335;Laerm;53138;51.496;6.410;2023-07-29T00:41:06;33.86;31.32;39.12;;
66335;Laerm;53138;51.496;6.410;2023-07-29T00:41:16;33.98;31.31;39.81;;
66335;Laerm;53138;51.496;6.410;2023-07-29T00:41:27;33.50;30.81;39.95;;
66335;Laerm;53138;51.496;6.410;2023-07-29T00:41:37;35.49;31.07;43.54;;
66335;Laerm;53138;51.496;6.410;2023-07-29T00:41:47;34.06;30.91;43.31;;
66335;Laerm;53138;51.496;6.410;2023-07-29T00:41:58;34.61;31.13;42.13;;
66335;Laerm;53138;51.496;6.410;2023-07-29T00:42:08;33.35;31.04;38.72;;
66335;Laerm;53138;51.496;6.410;2023-07-29T00:42:19;33.57;30.93;39.14;;
66335;Laerm;53138;51.496;6.410;2023-07-29T00:42:29;33.02;30.90;38.09;;
66335;Laerm;53138;51.496;6.410;2023-07-29T00:42:39;32.45;30.84;34.79;;
66335;Laerm;53138;51.496;6.410;2023-07-29T00:42:49;32.42;30.81;34.25;;
66335;Laerm;53138;51.496;6.410;2023-07-29T00:43:00;32.52;30.77;34.99;;
66335;Laerm;53138;51.496;6.410;2023-07-29T00:43:10;32.80;30.54;34.65;;
66335;Laerm;53138;51.496;6.410;2023-07-29T00:43:20;33.27;31.46;35.33;;
66335;Laerm;53138;51.496;6.410;2023-07-29T00:43:31;36.36;32.07;43.91;;
66335;Laerm;53138;51.496;6.410;2023-07-29T00:43:41;39.88;32.98;48.87;;
66335;Laerm;53138;51.496;6.410;2023-07-29T00:43:51;33.11;31.10;35.33;;
66335;Laerm;53138;51.496;6.410;2023-07-29T00:44:01;32.65;30.77;34.95;;
66335;Laerm;53138;51.496;6.410;2023-07-29T00:44:12;32.81;30.68;37.61;;
66335;Laerm;53138;51.496;6.410;2023-07-29T00:44:22;32.74;30.72;34.96;;
66335;Laerm;53138;51.496;6.410;2023-07-29T00:44:32;32.94;31.34;35.94;;
66335;Laerm;53138;51.496;6.410;2023-07-29T00:44:42;33.24;31.24;35.35;;
66335;Laerm;53138;51.496;6.410;2023-07-29T00:44:52;33.35;31.74;35.40;;
66335;Laerm;53138;51.496;6.410;2023-07-29T00:45:03;33.21;31.53;34.83;;
66335;Laerm;53138;51.496;6.410;2023-07-29T00:45:16;33.05;31.49;35.12;;
66335;Laerm;53138;51.496;6.410;2023-07-29T00:45:26;33.23;31.16;41.51;;
66335;Laerm;53138;51.496;6.410;2023-07-29T00:45:37;32.97;30.86;35.00;;
66335;Laerm;53138;51.496;6.410;2023-07-29T00:45:48;33.06;31.35;34.70;;
66335;Laerm;53138;51.496;6.410;2023-07-29T00:45:59;33.16;31.61;34.74;;
66335;Laerm;53138;51.496;6.410;2023-07-29T00:46:09;38.82;31.03;53.40;;
66335;Laerm;53138;51.496;6.410;2023-07-29T00:46:20;34.02;31.88;36.01;;
66335;Laerm;53138;51.496;6.410;2023-07-29T00:46:34;33.47;31.70;37.76;;
66335;Laerm;53138;51.496;6.410;2023-07-29T00:46:45;33.46;31.31;40.32;;
66335;Laerm;53138;51.496;6.410;2023-07-29T00:46:55;37.30;32.73;41.47;;
66335;Laerm;53138;51.496;6.410;2023-07-29T00:47:06;34.63;32.71;37.90;;
66335;Laerm;53138;51.496;6.410;2023-07-29T00:47:17;33.40;31.63;35.77;;
66335;Laerm;53138;51.496;6.410;2023-07-29T00:47:27;33.07;31.57;34.92;;
66335;Laerm;53138;51.496;6.410;2023-07-29T00:47:38;33.19;31.72;36.02;;
66335;Laerm;53138;51.496;6.410;2023-07-29T00:47:48;33.28;31.52;35.57;;
66335;Laerm;53138;51.496;6.410;2023-07-29T00:47:59;33.15;31.50;35.04;;
66335;Laerm;53138;51.496;6.410;2023-07-29T00:48:09;33.05;31.17;35.30;;
66335;Laerm;53138;51.496;6.410;2023-07-29T00:48:20;33.22;31.32;35.16;;
66335;Laerm;53138;51.496;6.410;2023-07-29T00:48:30;33.15;31.68;34.89;;
66335;Laerm;53138;51.496;6.410;2023-07-29T00:48:40;33.34;31.68;35.22;;
66335;Laerm;53138;51.496;6.410;2023-07-29T00:48:50;33.20;31.63;34.92;;
66335;Laerm;53138;51.496;6.410;2023-07-29T00:49:01;33.24;31.80;35.45;;
66335;Laerm;53138;51.496;6.410;2023-07-29T00:49:11;33.25;31.74;34.83;;
66335;Laerm;53138;51.496;6.410;2023-07-29T00:49:22;33.21;31.23;35.33;;
66335;Laerm;53138;51.496;6.410;2023-07-29T00:49:32;33.17;30.80;35.35;;
66335;Laerm;53138;51.496;6.410;2023-07-29T00:49:43;33.56;32.18;35.44;;
66335;Laerm;53138;51.496;6.410;2023-07-29T00:50:02;33.20;31.47;35.73;;
66335;Laerm;53138;51.496;6.410;2023-07-29T00:50:13;33.33;31.45;35.60;;
66335;Laerm;53138;51.496;6.410;2023-07-29T00:50:24;33.26;31.21;36.76;;
66335;Laerm;53138;51.496;6.410;2023-07-29T00:50:37;33.25;30.88;36.09;;
66335;Laerm;53138;51.496;6.410;2023-07-29T00:50:47;33.26;31.75;35.32;;
66335;Laerm;53138;51.496;6.410;2023-07-29T00:50:58;33.16;31.49;34.75;;
66335;Laerm;53138;51.496;6.410;2023-07-29T00:51:08;33.29;31.42;35.17;;
66335;Laerm;53138;51.496;6.410;2023-07-29T00:51:19;33.33;31.32;35.13;;
66335;Laerm;53138;51.496;6.410;2023-07-29T00:51:29;33.08;31.47;35.27;;
66335;Laerm;53138;51.496;6.410;2023-07-29T00:51:39;33.10;31.66;34.97;;
66335;Laerm;53138;51.496;6.410;2023-07-29T00:51:50;33.12;31.60;34.86;;
66335;Laerm;53138;51.496;6.410;2023-07-29T00:52:00;33.32;31.31;35.12;;
66335;Laerm;53138;51.496;6.410;2023-07-29T00:52:16;33.19;31.69;35.03;;
66335;Laerm;53138;51.496;6.410;2023-07-29T00:52:26;33.28;31.64;35.15;;
66335;Laerm;53138;51.496;6.410;2023-07-29T00:52:37;33.31;31.54;34.78;;
66335;Laerm;53138;51.496;6.410;2023-07-29T00:52:48;33.02;31.50;34.78;;
66335;Laerm;53138;51.496;6.410;2023-07-29T00:52:58;33.18;31.21;35.15;;
66335;Laerm;53138;51.496;6.410;2023-07-29T00:53:08;33.07;31.42;34.93;;
66335;Laerm;53138;51.496;6.410;2023-07-29T00:53:19;33.37;31.83;36.17;;
66335;Laerm;53138;51.496;6.410;2023-07-29T00:53:29;33.19;31.58;35.16;;
66335;Laerm;53138;51.496;6.410;2023-07-29T00:53:39;33.04;31.58;34.94;;
66335;Laerm;53138;51.496;6.410;2023-07-29T00:53:49;33.01;30.99;35.10;;
66335;Laerm;53138;51.496;6.410;2023-07-29T00:53:59;33.23;31.54;35.36;;
66335;Laerm;53138;51.496;6.410;2023-07-29T00:54:10;33.33;31.41;35.09;;
66335;Laerm;53138;51.496;6.410;2023-07-29T00:54:20;32.94;31.08;34.94;;
66335;Laerm;53138;51.496;6.410;2023-07-29T00:54:30;32.98;31.34;34.90;;
66335;Laerm;53138;51.496;6.410;2023-07-29T00:54:41;32.98;31.36;35.13;;
66335;Laerm;53138;51.496;6.410;2023-07-29T00:54:52;33.13;31.58;35.39;;
66335;Laerm;53138;51.496;6.410;2023-07-29T00:55:03;33.16;31.19;35.13;;
66335;Laerm;53138;51.496;6.410;2023-07-29T00:55:13;33.47;31.60;35.63;;
66335;Laerm;53138;51.496;6.410;2023-07-29T00:55:24;35.04;31.73;49.50;;
66335;Laerm;53138;51.496;6.410;2023-07-29T00:55:34;33.61;31.86;35.64;;
66335;Laerm;53138;51.496;6.410;2023-07-29T00:55:44;33.84;31.83;36.06;;
66335;Laerm;53138;51.496;6.410;2023-07-29T00:55:55;33.17;31.05;34.86;;
66335;Laerm;53138;51.496;6.410;2023-07-29T00:56:05;34.51;31.73;48.23;;
66335;Laerm;53138;51.496;6.410;2023-07-29T00:56:15;33.41;31.93;35.25;;
66335;Laerm;53138;51.496;6.410;2023-07-29T00:56:26;33.28;31.31;35.36;;
66335;Laerm;53138;51.496;6.410;2023-07-29T00:56:36;33.30;31.84;35.47;;
66335;Laerm;53138;51.496;6.410;2023-07-29T00:56:48;33.49;31.32;35.78;;
66335;Laerm;53138;51.496;6.410;2023-07-29T00:56:58;33.29;31.51;35.29;;
66335;Laerm;53138;51.496;6.410;2023-07-29T00:57:09;33.31;31.47;35.83;;
66335;Laerm;53138;51.496;6.410;2023-07-29T00:57:21;33.65;31.42;45.55;;
66335;Laerm;53138;51.496;6.410;2023-07-29T00:57:32;33.34;31.85;35.70;;
66335;Laerm;53138;51.496;6.410;2023-07-29T00:57:43;33.41;31.74;35.39;;
66335;Laerm;53138;51.496;6.410;2023-07-29T00:57:58;34.16;31.78;39.67;;
66335;Laerm;53138;51.496;6.410;2023-07-29T00:58:08;33.57;31.28;36.34;;
66335;Laerm;53138;51.496;6.410;2023-07-29T00:58:19;35.73;32.32;37.84;;
66335;Laerm;53138;51.496;6.410;2023-07-29T00:58:29;33.46;32.00;35.21;;
66335;Laerm;53138;51.496;6.410;2023-07-29T00:58:39;33.65;31.92;35.30;;
66335;Laerm;53138;51.496;6.410;2023-07-29T00:58:50;33.73;31.99;35.90;;
66335;Laerm;53138;51.496;6.410;2023-07-29T00:59:01;33.94;32.44;35.75;;
66335;Laerm;53138;51.496;6.410;2023-07-29T00:59:12;33.45;31.92;34.92;;
66335;Laerm;53138;51.496;6.410;2023-07-29T00:59:22;33.66;31.79;41.66;;